Point Roberts Airpark

1RL · 华盛顿州, 美国

使用的METAR站距离机场17 NM。
罗盘
风向 的 风向 350° Point Roberts Airpark 16/34
风: 6 kt, 2 beaufort

6 kt

1 kt
改变
0 ft 1.000 2.000 3.000 4.000 5.000
没有云
METAR KORS 121915Z AUTO 35006KT 9SM CLR 19/15 A3009 RMK AO2

METAR Point Roberts Airpark - 1RL

Point Roberts Airpark是,美国中的小机场。 该机场位于纬度48,97714和经度-123,07922。 该机场有一条跑道: 16/34. 该机场的伪ICAO代码为K1RL。 该机场的本地机场标识(FAA LID)为1RL。 机场在Seattle FIR中。

该航空气象观测是针对Orcas Island Airport在2024年7月12日 12:15, 当地时间进行的。

机场观察

风向为350°,速度为6 kt。

可见度为9 mi。

有没有云。 没有观察到天花板。

温度和风寒是19 °C。 露点为15 °C,相对湿度为78%。 海平面上的气压为30,09 inHg (QNH)。

白天

今天,太阳从05:22升起,在21:13降落。 这适用于Point Roberts Airpark,世界夏令时可能有所不同。 当地时间与世界标准时间之间的时差为-7 小时。 夏令时目前正在进行中。

公司介绍

我们没有关于这个机场的公司信息。

体会

到Vliegles.nl去找飞行课程,跳伞和其他飞行体验。 浏览页面,了解Point Roberts Airpark附近所有可用的活动。 你也可以使用搜索功能来寻找你所在地附近的特定飞行课程、跳伞或其他飞行体验。

跑道

Id 标题 侧风 逆风 侧风 %
16/34 180°-360° 1 kt 6 kt 17 %

逆风成分最大的方向会被突出显示,并用于横风计算。 这并不一定意味着这个方向在使用。

乌云

- CLR 没有云

温度 & 天气

温度 19 °C
露点 15 °C
相对湿度 78%
Kp-index 1 (0-9)

评论

AO2自动气象站,可确定降水类型

白天

日出
05:22
中午
13:17
日落
21:12 (8:23)

小工具

你想在你的网站上有一个关于Point Roberts Airpark的当前航空天气(METAR)的小部件吗?

显示HTML代码
报告变更